sensor_id;sensor_type;location;lat;lon;timestamp;P1;durP1;ratioP1;P2;durP2;ratioP2
73150;SDS011;61354;50.758;6.106;2023-03-12T00:00:37;7.53;;;2.60;;
73150;SDS011;61354;50.758;6.106;2023-03-12T00:03:04;4.47;;;1.90;;
73150;SDS011;61354;50.758;6.106;2023-03-12T00:05:29;4.43;;;1.90;;
73150;SDS011;61354;50.758;6.106;2023-03-12T00:07:55;4.10;;;1.80;;
73150;SDS011;61354;50.758;6.106;2023-03-12T00:12:52;2.88;;;1.30;;
73150;SDS011;61354;50.758;6.106;2023-03-12T00:15:17;2.42;;;1.45;;
73150;SDS011;61354;50.758;6.106;2023-03-12T00:17:43;3.08;;;1.27;;
73150;SDS011;61354;50.758;6.106;2023-03-12T00:20:09;4.78;;;1.50;;
73150;SDS011;61354;50.758;6.106;2023-03-12T00:22:36;2.80;;;1.50;;
73150;SDS011;61354;50.758;6.106;2023-03-12T00:25:02;3.33;;;1.55;;
73150;SDS011;61354;50.758;6.106;2023-03-12T00:27:29;3.90;;;1.63;;
73150;SDS011;61354;50.758;6.106;2023-03-12T00:29:54;3.03;;;1.40;;
73150;SDS011;61354;50.758;6.106;2023-03-12T00:32:20;3.38;;;1.63;;
73150;SDS011;61354;50.758;6.106;2023-03-12T00:34:50;2.70;;;1.40;;
73150;SDS011;61354;50.758;6.106;2023-03-12T00:37:17;3.33;;;1.42;;
73150;SDS011;61354;50.758;6.106;2023-03-12T00:39:42;3.30;;;1.42;;
73150;SDS011;61354;50.758;6.106;2023-03-12T00:42:08;3.80;;;1.58;;
73150;SDS011;61354;50.758;6.106;2023-03-12T00:44:33;3.30;;;1.45;;
73150;SDS011;61354;50.758;6.106;2023-03-12T00:46:59;2.85;;;1.50;;
73150;SDS011;61354;50.758;6.106;2023-03-12T00:49:24;3.13;;;1.50;;
73150;SDS011;61354;50.758;6.106;2023-03-12T00:51:50;2.80;;;1.83;;
73150;SDS011;61354;50.758;6.106;2023-03-12T00:54:16;6.72;;;1.15;;
73150;SDS011;61354;50.758;6.106;2023-03-12T00:56:41;4.18;;;1.30;;
73150;SDS011;61354;50.758;6.106;2023-03-12T00:59:07;2.90;;;1.42;;
73150;SDS011;61354;50.758;6.106;2023-03-12T01:01:32;3.40;;;1.52;;
73150;SDS011;61354;50.758;6.106;2023-03-12T01:03:58;5.63;;;1.80;;
73150;SDS011;61354;50.758;6.106;2023-03-12T01:06:24;3.00;;;1.42;;
73150;SDS011;61354;50.758;6.106;2023-03-12T01:08:50;4.55;;;1.70;;
73150;SDS011;61354;50.758;6.106;2023-03-12T01:11:16;4.88;;;1.50;;
73150;SDS011;61354;50.758;6.106;2023-03-12T01:13:44;5.38;;;1.83;;
73150;SDS011;61354;50.758;6.106;2023-03-12T01:16:10;3.60;;;1.27;;
73150;SDS011;61354;50.758;6.106;2023-03-12T01:18:36;2.08;;;1.42;;
73150;SDS011;61354;50.758;6.106;2023-03-12T01:21:01;2.22;;;1.27;;
73150;SDS011;61354;50.758;6.106;2023-03-12T01:23:27;4.90;;;1.73;;
73150;SDS011;61354;50.758;6.106;2023-03-12T01:25:53;4.07;;;1.35;;
73150;SDS011;61354;50.758;6.106;2023-03-12T01:28:23;2.55;;;1.60;;
73150;SDS011;61354;50.758;6.106;2023-03-12T01:30:49;2.35;;;1.20;;
73150;SDS011;61354;50.758;6.106;2023-03-12T01:33:15;3.70;;;1.42;;
73150;SDS011;61354;50.758;6.106;2023-03-12T01:35:41;3.25;;;1.63;;
73150;SDS011;61354;50.758;6.106;2023-03-12T01:38:08;3.22;;;1.42;;
73150;SDS011;61354;50.758;6.106;2023-03-12T01:40:38;6.07;;;1.90;;
73150;SDS011;61354;50.758;6.106;2023-03-12T01:46:15;3.45;;;1.60;;
73150;SDS011;61354;50.758;6.106;2023-03-12T01:49:07;3.80;;;1.67;;
73150;SDS011;61354;50.758;6.106;2023-03-12T01:51:45;4.85;;;1.40;;
73150;SDS011;61354;50.758;6.106;2023-03-12T01:56:55;2.92;;;1.25;;
73150;SDS011;61354;50.758;6.106;2023-03-12T01:59:26;2.58;;;1.17;;
73150;SDS011;61354;50.758;6.106;2023-03-12T02:01:59;2.30;;;1.20;;
73150;SDS011;61354;50.758;6.106;2023-03-12T02:04:25;3.08;;;1.33;;
73150;SDS011;61354;50.758;6.106;2023-03-12T02:07:07;2.50;;;1.20;;
73150;SDS011;61354;50.758;6.106;2023-03-12T02:09:35;4.55;;;1.95;;
73150;SDS011;61354;50.758;6.106;2023-03-12T02:12:04;4.88;;;1.52;;
73150;SDS011;61354;50.758;6.106;2023-03-12T02:14:30;3.20;;;1.40;;
73150;SDS011;61354;50.758;6.106;2023-03-12T02:16:56;3.60;;;1.55;;
73150;SDS011;61354;50.758;6.106;2023-03-12T02:22:14;2.88;;;1.38;;
73150;SDS011;61354;50.758;6.106;2023-03-12T02:27:21;3.97;;;1.40;;
73150;SDS011;61354;50.758;6.106;2023-03-12T02:29:48;2.72;;;1.20;;
73150;SDS011;61354;50.758;6.106;2023-03-12T02:32:16;3.22;;;1.40;;
73150;SDS011;61354;50.758;6.106;2023-03-12T02:34:50;1.70;;;1.13;;
73150;SDS011;61354;50.758;6.106;2023-03-12T02:37:17;2.05;;;1.35;;
73150;SDS011;61354;50.758;6.106;2023-03-12T02:39:43;4.05;;;1.58;;
73150;SDS011;61354;50.758;6.106;2023-03-12T02:42:15;3.40;;;1.63;;
73150;SDS011;61354;50.758;6.106;2023-03-12T02:44:41;4.57;;;1.40;;
73150;SDS011;61354;50.758;6.106;2023-03-12T02:47:07;4.03;;;1.42;;
73150;SDS011;61354;50.758;6.106;2023-03-12T02:49:33;2.83;;;1.40;;
73150;SDS011;61354;50.758;6.106;2023-03-12T02:52:00;3.65;;;1.30;;
73150;SDS011;61354;50.758;6.106;2023-03-12T02:54:26;4.28;;;1.40;;
73150;SDS011;61354;50.758;6.106;2023-03-12T02:56:52;3.50;;;1.77;;
73150;SDS011;61354;50.758;6.106;2023-03-12T02:59:18;4.35;;;1.40;;
73150;SDS011;61354;50.758;6.106;2023-03-12T03:01:45;2.78;;;1.30;;
73150;SDS011;61354;50.758;6.106;2023-03-12T03:04:11;4.68;;;1.48;;
73150;SDS011;61354;50.758;6.106;2023-03-12T03:06:38;3.00;;;1.50;;
73150;SDS011;61354;50.758;6.106;2023-03-12T03:09:07;4.50;;;1.58;;
73150;SDS011;61354;50.758;6.106;2023-03-12T03:11:32;2.72;;;1.38;;
73150;SDS011;61354;50.758;6.106;2023-03-12T03:13:58;3.53;;;1.42;;
73150;SDS011;61354;50.758;6.106;2023-03-12T03:16:24;2.05;;;1.30;;
73150;SDS011;61354;50.758;6.106;2023-03-12T03:18:49;7.75;;;1.67;;
73150;SDS011;61354;50.758;6.106;2023-03-12T03:21:15;5.80;;;2.15;;
73150;SDS011;61354;50.758;6.106;2023-03-12T03:23:41;3.42;;;1.23;;
73150;SDS011;61354;50.758;6.106;2023-03-12T03:26:08;6.57;;;1.70;;
73150;SDS011;61354;50.758;6.106;2023-03-12T03:28:34;3.58;;;2.10;;
73150;SDS011;61354;50.758;6.106;2023-03-12T03:31:00;3.13;;;1.50;;
73150;SDS011;61354;50.758;6.106;2023-03-12T03:33:30;3.20;;;1.63;;
73150;SDS011;61354;50.758;6.106;2023-03-12T03:35:57;5.50;;;2.38;;
73150;SDS011;61354;50.758;6.106;2023-03-12T03:38:24;3.30;;;1.60;;
73150;SDS011;61354;50.758;6.106;2023-03-12T03:40:52;3.53;;;1.52;;
73150;SDS011;61354;50.758;6.106;2023-03-12T03:43:17;2.25;;;1.40;;
73150;SDS011;61354;50.758;6.106;2023-03-12T03:45:43;4.25;;;1.73;;
73150;SDS011;61354;50.758;6.106;2023-03-12T03:48:12;3.30;;;1.35;;
73150;SDS011;61354;50.758;6.106;2023-03-12T03:50:38;3.05;;;1.58;;
73150;SDS011;61354;50.758;6.106;2023-03-12T03:53:04;6.93;;;2.03;;
73150;SDS011;61354;50.758;6.106;2023-03-12T03:55:30;4.18;;;1.80;;
73150;SDS011;61354;50.758;6.106;2023-03-12T03:57:59;3.40;;;1.75;;
73150;SDS011;61354;50.758;6.106;2023-03-12T04:00:25;4.20;;;1.63;;
73150;SDS011;61354;50.758;6.106;2023-03-12T04:02:50;4.70;;;1.70;;
73150;SDS011;61354;50.758;6.106;2023-03-12T04:05:17;3.00;;;1.52;;
73150;SDS011;61354;50.758;6.106;2023-03-12T04:07:44;2.83;;;1.60;;
73150;SDS011;61354;50.758;6.106;2023-03-12T04:10:10;3.38;;;1.60;;
73150;SDS011;61354;50.758;6.106;2023-03-12T04:12:36;3.80;;;1.83;;
73150;SDS011;61354;50.758;6.106;2023-03-12T04:15:02;2.95;;;1.42;;
73150;SDS011;61354;50.758;6.106;2023-03-12T04:17:28;4.43;;;1.60;;
73150;SDS011;61354;50.758;6.106;2023-03-12T04:19:53;4.80;;;1.67;;
73150;SDS011;61354;50.758;6.106;2023-03-12T04:22:19;3.08;;;1.70;;
73150;SDS011;61354;50.758;6.106;2023-03-12T04:24:45;2.92;;;1.67;;
73150;SDS011;61354;50.758;6.106;2023-03-12T04:27:10;2.83;;;1.40;;
73150;SDS011;61354;50.758;6.106;2023-03-12T04:29:36;3.70;;;1.63;;
73150;SDS011;61354;50.758;6.106;2023-03-12T04:32:03;6.43;;;1.52;;
73150;SDS011;61354;50.758;6.106;2023-03-12T04:34:29;4.28;;;1.52;;
73150;SDS011;61354;50.758;6.106;2023-03-12T04:36:55;4.82;;;1.42;;
73150;SDS011;61354;50.758;6.106;2023-03-12T04:39:20;3.47;;;1.85;;
73150;SDS011;61354;50.758;6.106;2023-03-12T04:41:46;4.57;;;1.77;;
73150;SDS011;61354;50.758;6.106;2023-03-12T04:44:12;2.88;;;1.77;;
73150;SDS011;61354;50.758;6.106;2023-03-12T04:46:38;2.00;;;1.25;;
73150;SDS011;61354;50.758;6.106;2023-03-12T04:49:04;2.67;;;1.52;;
73150;SDS011;61354;50.758;6.106;2023-03-12T04:51:30;2.17;;;1.35;;
73150;SDS011;61354;50.758;6.106;2023-03-12T04:53:56;3.03;;;1.58;;
73150;SDS011;61354;50.758;6.106;2023-03-12T04:56:22;6.60;;;1.70;;
73150;SDS011;61354;50.758;6.106;2023-03-12T04:58:47;2.80;;;1.63;;
73150;SDS011;61354;50.758;6.106;2023-03-12T05:01:29;2.60;;;1.42;;
73150;SDS011;61354;50.758;6.106;2023-03-12T05:03:57;2.80;;;1.55;;
73150;SDS011;61354;50.758;6.106;2023-03-12T05:06:23;4.18;;;1.45;;
73150;SDS011;61354;50.758;6.106;2023-03-12T05:08:48;4.35;;;1.60;;
73150;SDS011;61354;50.758;6.106;2023-03-12T05:11:15;3.60;;;1.50;;
73150;SDS011;61354;50.758;6.106;2023-03-12T05:13:41;4.78;;;1.38;;
73150;SDS011;61354;50.758;6.106;2023-03-12T05:16:07;3.63;;;1.77;;
73150;SDS011;61354;50.758;6.106;2023-03-12T05:18:33;4.20;;;1.67;;
73150;SDS011;61354;50.758;6.106;2023-03-12T05:21:00;2.05;;;1.50;;
73150;SDS011;61354;50.758;6.106;2023-03-12T05:23:27;2.65;;;1.77;;
73150;SDS011;61354;50.758;6.106;2023-03-12T05:25:54;3.22;;;1.60;;
73150;SDS011;61354;50.758;6.106;2023-03-12T05:28:19;3.47;;;1.52;;
73150;SDS011;61354;50.758;6.106;2023-03-12T05:30:46;5.15;;;1.67;;
73150;SDS011;61354;50.758;6.106;2023-03-12T05:33:11;3.05;;;1.75;;
73150;SDS011;61354;50.758;6.106;2023-03-12T05:35:37;3.28;;;1.48;;
73150;SDS011;61354;50.758;6.106;2023-03-12T05:38:03;2.55;;;1.50;;
73150;SDS011;61354;50.758;6.106;2023-03-12T05:40:28;3.55;;;1.60;;
73150;SDS011;61354;50.758;6.106;2023-03-12T05:42:54;2.90;;;1.67;;
73150;SDS011;61354;50.758;6.106;2023-03-12T05:45:20;4.65;;;1.55;;
73150;SDS011;61354;50.758;6.106;2023-03-12T05:47:46;2.78;;;1.52;;
73150;SDS011;61354;50.758;6.106;2023-03-12T05:50:11;3.25;;;1.90;;
73150;SDS011;61354;50.758;6.106;2023-03-12T05:52:37;3.20;;;1.60;;
73150;SDS011;61354;50.758;6.106;2023-03-12T05:55:03;4.30;;;1.80;;
73150;SDS011;61354;50.758;6.106;2023-03-12T05:57:29;3.20;;;1.73;;
73150;SDS011;61354;50.758;6.106;2023-03-12T05:59:54;3.25;;;2.00;;
73150;SDS011;61354;50.758;6.106;2023-03-12T06:02:20;2.60;;;1.60;;
73150;SDS011;61354;50.758;6.106;2023-03-12T06:04:45;2.78;;;1.52;;
73150;SDS011;61354;50.758;6.106;2023-03-12T06:07:11;2.80;;;1.45;;
73150;SDS011;61354;50.758;6.106;2023-03-12T06:09:36;3.25;;;1.75;;
73150;SDS011;61354;50.758;6.106;2023-03-12T06:12:02;4.05;;;1.50;;
73150;SDS011;61354;50.758;6.106;2023-03-12T06:14:28;2.75;;;1.55;;
73150;SDS011;61354;50.758;6.106;2023-03-12T06:16:54;3.05;;;2.00;;
73150;SDS011;61354;50.758;6.106;2023-03-12T06:19:19;3.55;;;1.90;;
73150;SDS011;61354;50.758;6.106;2023-03-12T06:21:45;4.03;;;1.90;;
73150;SDS011;61354;50.758;6.106;2023-03-12T06:24:10;4.25;;;1.80;;
73150;SDS011;61354;50.758;6.106;2023-03-12T06:26:36;3.33;;;1.70;;
73150;SDS011;61354;50.758;6.106;2023-03-12T06:29:02;3.22;;;1.98;;
73150;SDS011;61354;50.758;6.106;2023-03-12T06:31:27;2.70;;;1.65;;
73150;SDS011;61354;50.758;6.106;2023-03-12T06:33:53;3.70;;;1.98;;
73150;SDS011;61354;50.758;6.106;2023-03-12T06:36:18;3.05;;;1.77;;
73150;SDS011;61354;50.758;6.106;2023-03-12T06:38:44;3.15;;;1.83;;
73150;SDS011;61354;50.758;6.106;2023-03-12T06:41:12;4.05;;;2.13;;
73150;SDS011;61354;50.758;6.106;2023-03-12T06:43:39;3.67;;;1.83;;
73150;SDS011;61354;50.758;6.106;2023-03-12T06:46:07;4.93;;;2.00;;
73150;SDS011;61354;50.758;6.106;2023-03-12T06:48:36;4.60;;;1.83;;
73150;SDS011;61354;50.758;6.106;2023-03-12T06:51:05;2.72;;;1.77;;
73150;SDS011;61354;50.758;6.106;2023-03-12T06:53:32;2.97;;;1.88;;
73150;SDS011;61354;50.758;6.106;2023-03-12T06:55:58;3.88;;;1.80;;
73150;SDS011;61354;50.758;6.106;2023-03-12T06:58:24;3.10;;;1.67;;
73150;SDS011;61354;50.758;6.106;2023-03-12T07:00:50;3.00;;;2.10;;
73150;SDS011;61354;50.758;6.106;2023-03-12T07:03:16;4.05;;;1.90;;
73150;SDS011;61354;50.758;6.106;2023-03-12T07:05:45;3.92;;;1.85;;
73150;SDS011;61354;50.758;6.106;2023-03-12T07:08:12;3.08;;;1.77;;
73150;SDS011;61354;50.758;6.106;2023-03-12T07:10:38;4.15;;;2.08;;
73150;SDS011;61354;50.758;6.106;2023-03-12T07:13:04;3.45;;;1.70;;
73150;SDS011;61354;50.758;6.106;2023-03-12T07:15:29;3.00;;;1.67;;
73150;SDS011;61354;50.758;6.106;2023-03-12T07:17:58;3.05;;;1.90;;
73150;SDS011;61354;50.758;6.106;2023-03-12T07:20:24;3.67;;;2.05;;
73150;SDS011;61354;50.758;6.106;2023-03-12T07:22:50;4.18;;;1.90;;
73150;SDS011;61354;50.758;6.106;2023-03-12T07:25:16;3.85;;;2.15;;
73150;SDS011;61354;50.758;6.106;2023-03-12T07:27:41;2.60;;;2.10;;
73150;SDS011;61354;50.758;6.106;2023-03-12T07:30:10;3.13;;;1.88;;
73150;SDS011;61354;50.758;6.106;2023-03-12T07:32:36;3.00;;;1.70;;
73150;SDS011;61354;50.758;6.106;2023-03-12T07:35:02;3.65;;;1.85;;
73150;SDS011;61354;50.758;6.106;2023-03-12T07:37:29;4.30;;;1.92;;
73150;SDS011;61354;50.758;6.106;2023-03-12T07:39:55;4.07;;;1.88;;
73150;SDS011;61354;50.758;6.106;2023-03-12T07:42:21;3.85;;;2.00;;
73150;SDS011;61354;50.758;6.106;2023-03-12T07:44:47;3.15;;;1.58;;
73150;SDS011;61354;50.758;6.106;2023-03-12T07:47:12;3.92;;;2.22;;
73150;SDS011;61354;50.758;6.106;2023-03-12T07:49:38;3.22;;;1.75;;
73150;SDS011;61354;50.758;6.106;2023-03-12T07:52:08;4.85;;;1.95;;
73150;SDS011;61354;50.758;6.106;2023-03-12T07:54:36;3.08;;;1.60;;
73150;SDS011;61354;50.758;6.106;2023-03-12T07:57:02;2.40;;;1.50;;
73150;SDS011;61354;50.758;6.106;2023-03-12T07:59:28;3.42;;;1.60;;
73150;SDS011;61354;50.758;6.106;2023-03-12T08:01:54;2.95;;;1.70;;
73150;SDS011;61354;50.758;6.106;2023-03-12T08:04:19;4.90;;;1.73;;
73150;SDS011;61354;50.758;6.106;2023-03-12T08:06:45;3.33;;;1.73;;
73150;SDS011;61354;50.758;6.106;2023-03-12T08:09:11;3.38;;;1.85;;
73150;SDS011;61354;50.758;6.106;2023-03-12T08:11:36;3.88;;;1.70;;
73150;SDS011;61354;50.758;6.106;2023-03-12T08:14:03;3.10;;;1.75;;
73150;SDS011;61354;50.758;6.106;2023-03-12T08:16:29;2.70;;;1.67;;
73150;SDS011;61354;50.758;6.106;2023-03-12T08:18:55;2.80;;;1.70;;
73150;SDS011;61354;50.758;6.106;2023-03-12T08:21:21;2.55;;;1.52;;
73150;SDS011;61354;50.758;6.106;2023-03-12T08:23:47;2.08;;;1.45;;
73150;SDS011;61354;50.758;6.106;2023-03-12T08:26:12;3.47;;;1.80;;
73150;SDS011;61354;50.758;6.106;2023-03-12T08:28:38;2.97;;;1.60;;
73150;SDS011;61354;50.758;6.106;2023-03-12T08:31:04;2.40;;;1.42;;
73150;SDS011;61354;50.758;6.106;2023-03-12T08:33:30;2.17;;;1.33;;
73150;SDS011;61354;50.758;6.106;2023-03-12T08:35:55;2.47;;;1.35;;
73150;SDS011;61354;50.758;6.106;2023-03-12T08:38:21;2.50;;;1.40;;
73150;SDS011;61354;50.758;6.106;2023-03-12T08:40:53;1.85;;;1.27;;
73150;SDS011;61354;50.758;6.106;2023-03-12T08:43:22;2.35;;;1.20;;
73150;SDS011;61354;50.758;6.106;2023-03-12T08:45:58;2.17;;;1.15;;
73150;SDS011;61354;50.758;6.106;2023-03-12T08:48:25;3.38;;;1.30;;
73150;SDS011;61354;50.758;6.106;2023-03-12T08:50:56;4.07;;;1.65;;
73150;SDS011;61354;50.758;6.106;2023-03-12T08:53:23;2.65;;;1.42;;
73150;SDS011;61354;50.758;6.106;2023-03-12T08:55:53;2.65;;;1.45;;
73150;SDS011;61354;50.758;6.106;2023-03-12T08:58:20;1.65;;;1.00;;
73150;SDS011;61354;50.758;6.106;2023-03-12T09:00:47;3.55;;;1.85;;
73150;SDS011;61354;50.758;6.106;2023-03-12T09:03:13;2.95;;;1.75;;
73150;SDS011;61354;50.758;6.106;2023-03-12T09:05:42;2.65;;;1.42;;
73150;SDS011;61354;50.758;6.106;2023-03-12T09:08:08;4.25;;;1.75;;
73150;SDS011;61354;50.758;6.106;2023-03-12T09:10:34;3.20;;;1.80;;
73150;SDS011;61354;50.758;6.106;2023-03-12T09:13:03;3.17;;;1.63;;
73150;SDS011;61354;50.758;6.106;2023-03-12T09:15:31;4.15;;;1.75;;
73150;SDS011;61354;50.758;6.106;2023-03-12T09:17:57;2.67;;;1.60;;
73150;SDS011;61354;50.758;6.106;2023-03-12T09:20:23;3.25;;;1.27;;
73150;SDS011;61354;50.758;6.106;2023-03-12T09:22:49;4.35;;;1.77;;
73150;SDS011;61354;50.758;6.106;2023-03-12T09:25:17;2.75;;;1.48;;
73150;SDS011;61354;50.758;6.106;2023-03-12T09:27:44;3.28;;;1.85;;
73150;SDS011;61354;50.758;6.106;2023-03-12T09:30:12;3.45;;;1.90;;
73150;SDS011;61354;50.758;6.106;2023-03-12T09:32:40;2.97;;;1.70;;
73150;SDS011;61354;50.758;6.106;2023-03-12T09:35:06;3.35;;;1.60;;
73150;SDS011;61354;50.758;6.106;2023-03-12T09:37:32;4.00;;;2.15;;
73150;SDS011;61354;50.758;6.106;2023-03-12T09:39:58;5.45;;;2.35;;
73150;SDS011;61354;50.758;6.106;2023-03-12T09:42:26;4.82;;;1.70;;
73150;SDS011;61354;50.758;6.106;2023-03-12T09:45:00;4.90;;;2.00;;
73150;SDS011;61354;50.758;6.106;2023-03-12T09:47:34;4.00;;;1.70;;
73150;SDS011;61354;50.758;6.106;2023-03-12T09:55:31;3.67;;;2.20;;
73150;SDS011;61354;50.758;6.106;2023-03-12T09:58:02;2.25;;;1.42;;
73150;SDS011;61354;50.758;6.106;2023-03-12T10:00:32;6.13;;;2.35;;
73150;SDS011;61354;50.758;6.106;2023-03-12T10:08:09;4.53;;;2.25;;
73150;SDS011;61354;50.758;6.106;2023-03-12T10:13:29;6.88;;;2.97;;
73150;SDS011;61354;50.758;6.106;2023-03-12T10:27:21;7.35;;;2.95;;
73150;SDS011;61354;50.758;6.106;2023-03-12T10:29:50;4.72;;;2.90;;
73150;SDS011;61354;50.758;6.106;2023-03-12T10:32:21;5.43;;;2.97;;
73150;SDS011;61354;50.758;6.106;2023-03-12T10:35:19;5.75;;;3.17;;
73150;SDS011;61354;50.758;6.106;2023-03-12T10:37:53;5.55;;;3.20;;
73150;SDS011;61354;50.758;6.106;2023-03-12T10:40:23;6.03;;;2.72;;
73150;SDS011;61354;50.758;6.106;2023-03-12T10:42:53;5.75;;;3.00;;
73150;SDS011;61354;50.758;6.106;2023-03-12T10:48:04;7.85;;;3.38;;
73150;SDS011;61354;50.758;6.106;2023-03-12T10:50:34;6.72;;;3.60;;
73150;SDS011;61354;50.758;6.106;2023-03-12T10:53:12;8.70;;;3.63;;
73150;SDS011;61354;50.758;6.106;2023-03-12T10:55:37;10.23;;;4.28;;
73150;SDS011;61354;50.758;6.106;2023-03-12T10:58:04;6.60;;;3.58;;
73150;SDS011;61354;50.758;6.106;2023-03-12T11:00:30;10.60;;;3.80;;
73150;SDS011;61354;50.758;6.106;2023-03-12T11:03:17;11.35;;;4.15;;
73150;SDS011;61354;50.758;6.106;2023-03-12T11:05:45;8.90;;;3.50;;
73150;SDS011;61354;50.758;6.106;2023-03-12T11:10:53;9.02;;;3.72;;
73150;SDS011;61354;50.758;6.106;2023-03-12T11:15:57;10.10;;;3.35;;
73150;SDS011;61354;50.758;6.106;2023-03-12T11:21:29;6.40;;;3.45;;
73150;SDS011;61354;50.758;6.106;2023-03-12T11:26:22;11.25;;;3.13;;
73150;SDS011;61354;50.758;6.106;2023-03-12T11:31:36;9.35;;;2.92;;
73150;SDS011;61354;50.758;6.106;2023-03-12T11:34:06;5.68;;;2.67;;
73150;SDS011;61354;50.758;6.106;2023-03-12T11:56:11;8.10;;;3.10;;
73150;SDS011;61354;50.758;6.106;2023-03-12T11:58:59;8.48;;;2.45;;
73150;SDS011;61354;50.758;6.106;2023-03-12T12:26:05;13.32;;;2.90;;
73150;SDS011;61354;50.758;6.106;2023-03-12T12:28:38;9.20;;;2.28;;
73150;SDS011;61354;50.758;6.106;2023-03-12T12:36:36;10.52;;;2.47;;
73150;SDS011;61354;50.758;6.106;2023-03-12T12:39:11;8.48;;;2.20;;
73150;SDS011;61354;50.758;6.106;2023-03-12T12:41:43;7.32;;;2.45;;
73150;SDS011;61354;50.758;6.106;2023-03-12T12:44:14;8.07;;;2.50;;
73150;SDS011;61354;50.758;6.106;2023-03-12T12:46:49;6.07;;;2.38;;
73150;SDS011;61354;50.758;6.106;2023-03-12T12:49:34;10.93;;;3.00;;
73150;SDS011;61354;50.758;6.106;2023-03-12T12:52:04;10.88;;;2.60;;
73150;SDS011;61354;50.758;6.106;2023-03-12T13:02:54;8.32;;;2.47;;
73150;SDS011;61354;50.758;6.106;2023-03-12T13:07:50;9.77;;;2.45;;
73150;SDS011;61354;50.758;6.106;2023-03-12T13:13:03;10.05;;;2.67;;
73150;SDS011;61354;50.758;6.106;2023-03-12T13:15:36;8.65;;;2.67;;
73150;SDS011;61354;50.758;6.106;2023-03-12T13:26:17;10.35;;;3.05;;
73150;SDS011;61354;50.758;6.106;2023-03-12T13:31:39;11.45;;;2.92;;
73150;SDS011;61354;50.758;6.106;2023-03-12T13:36:30;12.27;;;2.80;;
73150;SDS011;61354;50.758;6.106;2023-03-12T13:41:38;9.80;;;2.60;;
73150;SDS011;61354;50.758;6.106;2023-03-12T13:47:52;10.20;;;2.97;;
73150;SDS011;61354;50.758;6.106;2023-03-12T13:50:05;11.15;;;2.38;;
73150;SDS011;61354;50.758;6.106;2023-03-12T13:52:40;8.65;;;2.35;;
73150;SDS011;61354;50.758;6.106;2023-03-12T13:57:40;15.15;;;3.05;;
73150;SDS011;61354;50.758;6.106;2023-03-12T14:05:44;7.75;;;2.30;;
73150;SDS011;61354;50.758;6.106;2023-03-12T14:14:07;8.93;;;2.80;;
73150;SDS011;61354;50.758;6.106;2023-03-12T14:16:43;10.00;;;1.92;;
73150;SDS011;61354;50.758;6.106;2023-03-12T14:19:11;7.28;;;2.50;;
73150;SDS011;61354;50.758;6.106;2023-03-12T14:21:38;13.95;;;2.45;;
73150;SDS011;61354;50.758;6.106;2023-03-12T14:24:07;9.32;;;2.15;;
73150;SDS011;61354;50.758;6.106;2023-03-12T14:26:44;10.57;;;2.40;;
73150;SDS011;61354;50.758;6.106;2023-03-12T14:29:20;5.72;;;1.48;;
73150;SDS011;61354;50.758;6.106;2023-03-12T14:31:53;11.55;;;2.47;;
73150;SDS011;61354;50.758;6.106;2023-03-12T14:34:23;11.00;;;2.25;;
73150;SDS011;61354;50.758;6.106;2023-03-12T14:37:12;8.80;;;2.33;;
73150;SDS011;61354;50.758;6.106;2023-03-12T14:42:22;10.10;;;1.92;;
73150;SDS011;61354;50.758;6.106;2023-03-12T14:44:52;9.60;;;1.98;;
73150;SDS011;61354;50.758;6.106;2023-03-12T14:47:51;8.43;;;2.15;;
73150;SDS011;61354;50.758;6.106;2023-03-12T14:50:26;10.93;;;2.25;;
73150;SDS011;61354;50.758;6.106;2023-03-12T14:52:54;11.00;;;2.28;;
73150;SDS011;61354;50.758;6.106;2023-03-12T14:55:34;5.72;;;1.98;;
73150;SDS011;61354;50.758;6.106;2023-03-12T14:58:13;10.10;;;2.05;;
73150;SDS011;61354;50.758;6.106;2023-03-12T15:00:41;13.07;;;2.03;;
73150;SDS011;61354;50.758;6.106;2023-03-12T15:03:11;6.28;;;1.75;;
73150;SDS011;61354;50.758;6.106;2023-03-12T15:05:43;9.45;;;2.20;;
73150;SDS011;61354;50.758;6.106;2023-03-12T15:08:11;9.48;;;2.75;;
73150;SDS011;61354;50.758;6.106;2023-03-12T15:10:37;12.75;;;2.47;;
73150;SDS011;61354;50.758;6.106;2023-03-12T15:13:04;7.93;;;2.00;;
73150;SDS011;61354;50.758;6.106;2023-03-12T15:18:05;10.55;;;2.40;;
73150;SDS011;61354;50.758;6.106;2023-03-12T15:20:35;8.98;;;1.83;;
73150;SDS011;61354;50.758;6.106;2023-03-12T15:23:01;12.70;;;2.10;;
73150;SDS011;61354;50.758;6.106;2023-03-12T15:25:32;6.13;;;1.75;;
73150;SDS011;61354;50.758;6.106;2023-03-12T15:30:28;10.57;;;2.30;;
73150;SDS011;61354;50.758;6.106;2023-03-12T15:33:08;11.75;;;2.25;;
73150;SDS011;61354;50.758;6.106;2023-03-12T15:35:38;9.20;;;2.00;;
73150;SDS011;61354;50.758;6.106;2023-03-12T15:38:21;13.20;;;2.63;;
73150;SDS011;61354;50.758;6.106;2023-03-12T15:40:50;10.98;;;2.22;;
73150;SDS011;61354;50.758;6.106;2023-03-12T15:43:20;11.32;;;2.00;;
73150;SDS011;61354;50.758;6.106;2023-03-12T15:45:47;14.23;;;2.13;;
73150;SDS011;61354;50.758;6.106;2023-03-12T15:48:29;10.55;;;2.15;;
73150;SDS011;61354;50.758;6.106;2023-03-12T15:51:00;9.60;;;2.20;;
73150;SDS011;61354;50.758;6.106;2023-03-12T15:53:33;8.23;;;2.10;;
73150;SDS011;61354;50.758;6.106;2023-03-12T15:56:05;11.18;;;2.45;;
73150;SDS011;61354;50.758;6.106;2023-03-12T15:58:51;12.90;;;2.60;;
73150;SDS011;61354;50.758;6.106;2023-03-12T16:01:24;9.13;;;2.60;;
73150;SDS011;61354;50.758;6.106;2023-03-12T16:03:52;10.70;;;2.47;;
73150;SDS011;61354;50.758;6.106;2023-03-12T16:06:22;14.82;;;2.35;;
73150;SDS011;61354;50.758;6.106;2023-03-12T16:08:54;12.63;;;2.00;;
73150;SDS011;61354;50.758;6.106;2023-03-12T16:11:25;13.32;;;2.55;;
73150;SDS011;61354;50.758;6.106;2023-03-12T16:14:34;12.38;;;2.53;;
73150;SDS011;61354;50.758;6.106;2023-03-12T16:16:50;8.77;;;2.13;;
73150;SDS011;61354;50.758;6.106;2023-03-12T16:19:16;10.70;;;2.35;;
73150;SDS011;61354;50.758;6.106;2023-03-12T16:21:44;7.65;;;2.08;;
73150;SDS011;61354;50.758;6.106;2023-03-12T16:24:10;8.80;;;2.35;;
73150;SDS011;61354;50.758;6.106;2023-03-12T16:26:37;10.77;;;2.30;;
73150;SDS011;61354;50.758;6.106;2023-03-12T16:29:12;10.80;;;2.10;;
73150;SDS011;61354;50.758;6.106;2023-03-12T16:31:40;11.80;;;3.38;;
73150;SDS011;61354;50.758;6.106;2023-03-12T16:34:08;15.90;;;2.72;;
73150;SDS011;61354;50.758;6.106;2023-03-12T16:36:35;8.15;;;2.38;;
73150;SDS011;61354;50.758;6.106;2023-03-12T16:39:01;12.80;;;2.42;;
73150;SDS011;61354;50.758;6.106;2023-03-12T16:41:26;13.38;;;3.03;;
73150;SDS011;61354;50.758;6.106;2023-03-12T16:43:52;8.75;;;2.63;;
73150;SDS011;61354;50.758;6.106;2023-03-12T16:46:19;11.10;;;2.97;;
73150;SDS011;61354;50.758;6.106;2023-03-12T16:48:49;8.95;;;3.33;;
73150;SDS011;61354;50.758;6.106;2023-03-12T16:51:16;12.07;;;2.40;;
73150;SDS011;61354;50.758;6.106;2023-03-12T16:53:42;11.88;;;2.42;;
73150;SDS011;61354;50.758;6.106;2023-03-12T16:56:20;15.20;;;2.53;;
73150;SDS011;61354;50.758;6.106;2023-03-12T16:58:48;13.35;;;2.65;;
73150;SDS011;61354;50.758;6.106;2023-03-12T17:01:16;7.57;;;1.95;;
73150;SDS011;61354;50.758;6.106;2023-03-12T17:03:45;7.50;;;2.03;;
73150;SDS011;61354;50.758;6.106;2023-03-12T17:06:18;9.23;;;2.15;;
73150;SDS011;61354;50.758;6.106;2023-03-12T17:08:47;7.00;;;2.10;;
73150;SDS011;61354;50.758;6.106;2023-03-12T17:11:18;8.63;;;2.70;;
73150;SDS011;61354;50.758;6.106;2023-03-12T17:13:46;10.65;;;1.80;;
73150;SDS011;61354;50.758;6.106;2023-03-12T17:16:14;11.48;;;2.95;;
73150;SDS011;61354;50.758;6.106;2023-03-12T17:18:40;10.73;;;2.42;;
73150;SDS011;61354;50.758;6.106;2023-03-12T17:21:06;11.45;;;2.65;;
73150;SDS011;61354;50.758;6.106;2023-03-12T17:23:35;9.13;;;2.53;;
73150;SDS011;61354;50.758;6.106;2023-03-12T17:26:00;10.13;;;2.65;;
73150;SDS011;61354;50.758;6.106;2023-03-12T17:28:26;15.70;;;2.88;;
73150;SDS011;61354;50.758;6.106;2023-03-12T17:30:52;13.30;;;2.55;;